sensor_id;sensor_type;location;lat;lon;timestamp;temperature;humidity
40660;DHT22;26753;45.544;9.232;2022-08-03T00:01:42;29.80;85.50
40660;DHT22;26753;45.544;9.232;2022-08-03T00:04:09;29.80;85.70
40660;DHT22;26753;45.544;9.232;2022-08-03T00:06:36;29.80;85.70
40660;DHT22;26753;45.544;9.232;2022-08-03T00:09:05;29.80;85.80
40660;DHT22;26753;45.544;9.232;2022-08-03T00:11:31;29.80;85.80
40660;DHT22;26753;45.544;9.232;2022-08-03T00:13:56;29.70;85.80
40660;DHT22;26753;45.544;9.232;2022-08-03T00:16:22;29.70;85.80
40660;DHT22;26753;45.544;9.232;2022-08-03T00:18:49;29.70;85.90
40660;DHT22;26753;45.544;9.232;2022-08-03T00:21:15;29.70;85.90
40660;DHT22;26753;45.544;9.232;2022-08-03T00:23:40;29.70;85.90
40660;DHT22;26753;45.544;9.232;2022-08-03T00:26:06;29.70;85.90
40660;DHT22;26753;45.544;9.232;2022-08-03T00:28:31;29.70;86.00
40660;DHT22;26753;45.544;9.232;2022-08-03T00:30:57;29.70;86.20
40660;DHT22;26753;45.544;9.232;2022-08-03T00:33:25;29.70;86.30
40660;DHT22;26753;45.544;9.232;2022-08-03T00:35:51;29.60;86.30
40660;DHT22;26753;45.544;9.232;2022-08-03T00:38:18;29.60;86.50
40660;DHT22;26753;45.544;9.232;2022-08-03T00:40:44;29.50;86.60
40660;DHT22;26753;45.544;9.232;2022-08-03T00:43:10;29.50;87.40
40660;DHT22;26753;45.544;9.232;2022-08-03T00:45:40;29.50;86.90
40660;DHT22;26753;45.544;9.232;2022-08-03T00:48:08;29.40;87.00
40660;DHT22;26753;45.544;9.232;2022-08-03T00:50:40;29.50;87.10
40660;DHT22;26753;45.544;9.232;2022-08-03T00:53:08;29.50;87.20
40660;DHT22;26753;45.544;9.232;2022-08-03T00:55:35;29.50;87.30
40660;DHT22;26753;45.544;9.232;2022-08-03T00:58:01;29.50;87.40
40660;DHT22;26753;45.544;9.232;2022-08-03T01:00:32;29.50;87.40
40660;DHT22;26753;45.544;9.232;2022-08-03T01:02:58;29.50;87.40
40660;DHT22;26753;45.544;9.232;2022-08-03T01:05:24;29.40;87.40
40660;DHT22;26753;45.544;9.232;2022-08-03T01:08:04;29.40;88.20
40660;DHT22;26753;45.544;9.232;2022-08-03T01:10:52;29.40;87.80
40660;DHT22;26753;45.544;9.232;2022-08-03T01:13:40;29.40;87.80
40660;DHT22;26753;45.544;9.232;2022-08-03T01:16:18;29.40;87.90
40660;DHT22;26753;45.544;9.232;2022-08-03T01:19:07;29.40;87.90
40660;DHT22;26753;45.544;9.232;2022-08-03T01:24:36;29.30;88.00
40660;DHT22;26753;45.544;9.232;2022-08-03T01:27:13;29.30;88.20
40660;DHT22;26753;45.544;9.232;2022-08-03T01:30:11;29.20;88.20
40660;DHT22;26753;45.544;9.232;2022-08-03T01:32:48;29.20;88.50
40660;DHT22;26753;45.544;9.232;2022-08-03T01:35:44;29.20;88.60
40660;DHT22;26753;45.544;9.232;2022-08-03T01:38:14;29.20;88.70
40660;DHT22;26753;45.544;9.232;2022-08-03T01:40:43;29.10;88.70
40660;DHT22;26753;45.544;9.232;2022-08-03T01:43:14;29.10;88.70
40660;DHT22;26753;45.544;9.232;2022-08-03T01:45:42;29.10;88.70
40660;DHT22;26753;45.544;9.232;2022-08-03T01:48:11;29.10;88.90
40660;DHT22;26753;45.544;9.232;2022-08-03T01:50:39;29.00;89.10
40660;DHT22;26753;45.544;9.232;2022-08-03T01:53:07;28.90;90.00
40660;DHT22;26753;45.544;9.232;2022-08-03T01:55:35;28.90;89.60
40660;DHT22;26753;45.544;9.232;2022-08-03T01:58:02;28.80;90.00
40660;DHT22;26753;45.544;9.232;2022-08-03T02:00:30;28.80;90.00
40660;DHT22;26753;45.544;9.232;2022-08-03T02:02:57;28.70;90.10
40660;DHT22;26753;45.544;9.232;2022-08-03T02:05:26;28.70;90.10
40660;DHT22;26753;45.544;9.232;2022-08-03T02:07:53;28.70;90.20
40660;DHT22;26753;45.544;9.232;2022-08-03T02:10:20;28.70;90.30
40660;DHT22;26753;45.544;9.232;2022-08-03T02:12:47;28.60;90.40
40660;DHT22;26753;45.544;9.232;2022-08-03T02:15:15;28.60;90.50
40660;DHT22;26753;45.544;9.232;2022-08-03T02:17:41;28.50;90.60
40660;DHT22;26753;45.544;9.232;2022-08-03T02:20:10;28.50;90.70
40660;DHT22;26753;45.544;9.232;2022-08-03T02:22:39;28.50;90.70
40660;DHT22;26753;45.544;9.232;2022-08-03T02:25:07;28.50;90.80
40660;DHT22;26753;45.544;9.232;2022-08-03T02:27:44;28.40;90.80
40660;DHT22;26753;45.544;9.232;2022-08-03T02:30:11;28.40;91.00
40660;DHT22;26753;45.544;9.232;2022-08-03T02:32:41;28.40;91.00
40660;DHT22;26753;45.544;9.232;2022-08-03T02:35:10;28.40;91.50
40660;DHT22;26753;45.544;9.232;2022-08-03T02:37:42;28.40;91.30
40660;DHT22;26753;45.544;9.232;2022-08-03T02:40:09;28.40;91.30
40660;DHT22;26753;45.544;9.232;2022-08-03T02:42:37;28.40;91.30
40660;DHT22;26753;45.544;9.232;2022-08-03T02:45:07;28.40;91.50
40660;DHT22;26753;45.544;9.232;2022-08-03T02:47:36;28.40;91.60
40660;DHT22;26753;45.544;9.232;2022-08-03T02:50:04;28.40;91.80
40660;DHT22;26753;45.544;9.232;2022-08-03T02:52:32;28.40;91.60
40660;DHT22;26753;45.544;9.232;2022-08-03T02:54:59;28.40;91.70
40660;DHT22;26753;45.544;9.232;2022-08-03T02:57:28;28.40;91.70
40660;DHT22;26753;45.544;9.232;2022-08-03T02:59:56;28.50;91.70
40660;DHT22;26753;45.544;9.232;2022-08-03T03:02:23;28.50;91.80
40660;DHT22;26753;45.544;9.232;2022-08-03T03:04:50;28.50;91.80
40660;DHT22;26753;45.544;9.232;2022-08-03T03:07:17;28.50;91.80
40660;DHT22;26753;45.544;9.232;2022-08-03T03:09:43;28.50;91.80
40660;DHT22;26753;45.544;9.232;2022-08-03T03:12:11;28.50;91.80
40660;DHT22;26753;45.544;9.232;2022-08-03T03:14:38;28.50;91.80
40660;DHT22;26753;45.544;9.232;2022-08-03T03:17:06;28.60;91.90
40660;DHT22;26753;45.544;9.232;2022-08-03T03:19:33;28.50;92.00
40660;DHT22;26753;45.544;9.232;2022-08-03T03:22:00;28.40;92.10
40660;DHT22;26753;45.544;9.232;2022-08-03T03:24:29;28.30;92.30
40660;DHT22;26753;45.544;9.232;2022-08-03T03:26:58;28.30;92.60
40660;DHT22;26753;45.544;9.232;2022-08-03T03:29:24;28.30;92.70
40660;DHT22;26753;45.544;9.232;2022-08-03T03:31:50;28.20;92.80
40660;DHT22;26753;45.544;9.232;2022-08-03T03:34:17;28.10;92.90
40660;DHT22;26753;45.544;9.232;2022-08-03T03:36:43;28.20;93.10
40660;DHT22;26753;45.544;9.232;2022-08-03T03:39:08;28.10;93.30
40660;DHT22;26753;45.544;9.232;2022-08-03T03:41:35;28.00;93.50
40660;DHT22;26753;45.544;9.232;2022-08-03T03:44:01;28.00;93.70
40660;DHT22;26753;45.544;9.232;2022-08-03T03:46:27;28.00;93.90
40660;DHT22;26753;45.544;9.232;2022-08-03T03:48:52;27.90;94.20
40660;DHT22;26753;45.544;9.232;2022-08-03T03:51:18;27.90;94.40
40660;DHT22;26753;45.544;9.232;2022-08-03T03:54:01;27.80;94.70
40660;DHT22;26753;45.544;9.232;2022-08-03T03:56:27;27.80;95.20
40660;DHT22;26753;45.544;9.232;2022-08-03T03:58:53;27.70;95.10
40660;DHT22;26753;45.544;9.232;2022-08-03T04:01:20;27.70;95.30
40660;DHT22;26753;45.544;9.232;2022-08-03T04:03:46;27.80;95.40
40660;DHT22;26753;45.544;9.232;2022-08-03T04:06:12;27.70;95.60
40660;DHT22;26753;45.544;9.232;2022-08-03T04:08:57;27.80;95.70
40660;DHT22;26753;45.544;9.232;2022-08-03T04:11:51;27.70;95.90
40660;DHT22;26753;45.544;9.232;2022-08-03T04:14:25;27.70;96.20
40660;DHT22;26753;45.544;9.232;2022-08-03T04:16:56;27.70;96.20
40660;DHT22;26753;45.544;9.232;2022-08-03T04:19:29;27.70;96.50
40660;DHT22;26753;45.544;9.232;2022-08-03T04:22:01;27.70;96.50
40660;DHT22;26753;45.544;9.232;2022-08-03T04:24:42;27.70;96.70
40660;DHT22;26753;45.544;9.232;2022-08-03T04:27:10;27.60;96.80
40660;DHT22;26753;45.544;9.232;2022-08-03T04:29:40;27.60;96.90
40660;DHT22;26753;45.544;9.232;2022-08-03T04:32:07;27.70;97.00
40660;DHT22;26753;45.544;9.232;2022-08-03T04:34:33;27.70;96.90
40660;DHT22;26753;45.544;9.232;2022-08-03T04:37:02;27.80;96.80
40660;DHT22;26753;45.544;9.232;2022-08-03T04:39:30;27.90;96.80
40660;DHT22;26753;45.544;9.232;2022-08-03T04:42:02;27.90;96.70
40660;DHT22;26753;45.544;9.232;2022-08-03T04:44:29;27.90;96.80
40660;DHT22;26753;45.544;9.232;2022-08-03T04:46:56;27.90;96.60
40660;DHT22;26753;45.544;9.232;2022-08-03T04:49:23;28.00;96.60
40660;DHT22;26753;45.544;9.232;2022-08-03T04:51:55;28.00;96.70
40660;DHT22;26753;45.544;9.232;2022-08-03T04:54:20;27.90;97.00
40660;DHT22;26753;45.544;9.232;2022-08-03T04:56:46;27.90;96.80
40660;DHT22;26753;45.544;9.232;2022-08-03T04:59:12;27.90;96.90
40660;DHT22;26753;45.544;9.232;2022-08-03T05:01:39;27.90;97.00
40660;DHT22;26753;45.544;9.232;2022-08-03T05:04:05;27.90;97.20
40660;DHT22;26753;45.544;9.232;2022-08-03T05:06:31;27.80;97.30
40660;DHT22;26753;45.544;9.232;2022-08-03T05:08:56;27.90;97.30
40660;DHT22;26753;45.544;9.232;2022-08-03T05:11:22;27.80;97.40
40660;DHT22;26753;45.544;9.232;2022-08-03T05:13:51;27.80;97.50
40660;DHT22;26753;45.544;9.232;2022-08-03T05:16:16;27.90;97.70
40660;DHT22;26753;45.544;9.232;2022-08-03T05:18:42;27.90;97.50
40660;DHT22;26753;45.544;9.232;2022-08-03T05:21:09;28.00;97.50
40660;DHT22;26753;45.544;9.232;2022-08-03T05:23:35;28.10;97.70
40660;DHT22;26753;45.544;9.232;2022-08-03T05:26:02;28.20;97.20
40660;DHT22;26753;45.544;9.232;2022-08-03T05:28:27;28.40;97.00
40660;DHT22;26753;45.544;9.232;2022-08-03T05:30:53;28.50;96.80
40660;DHT22;26753;45.544;9.232;2022-08-03T05:33:19;28.60;96.60
40660;DHT22;26753;45.544;9.232;2022-08-03T05:35:45;28.70;96.40
40660;DHT22;26753;45.544;9.232;2022-08-03T05:38:10;28.80;96.20
40660;DHT22;26753;45.544;9.232;2022-08-03T05:40:36;28.90;96.00
40660;DHT22;26753;45.544;9.232;2022-08-03T05:43:02;29.00;95.80
40660;DHT22;26753;45.544;9.232;2022-08-03T05:45:27;29.00;95.60
40660;DHT22;26753;45.544;9.232;2022-08-03T05:47:53;29.10;95.50
40660;DHT22;26753;45.544;9.232;2022-08-03T05:50:19;29.10;95.30
40660;DHT22;26753;45.544;9.232;2022-08-03T05:52:45;29.20;95.20
40660;DHT22;26753;45.544;9.232;2022-08-03T05:55:12;29.20;95.10
40660;DHT22;26753;45.544;9.232;2022-08-03T05:57:38;29.30;95.10
40660;DHT22;26753;45.544;9.232;2022-08-03T06:00:08;29.30;95.30
40660;DHT22;26753;45.544;9.232;2022-08-03T06:02:34;29.40;94.90
40660;DHT22;26753;45.544;9.232;2022-08-03T06:05:00;29.50;94.70
40660;DHT22;26753;45.544;9.232;2022-08-03T06:07:26;29.50;94.50
40660;DHT22;26753;45.544;9.232;2022-08-03T06:09:52;29.60;94.40
40660;DHT22;26753;45.544;9.232;2022-08-03T06:12:18;29.60;94.20
40660;DHT22;26753;45.544;9.232;2022-08-03T06:14:43;29.70;94.00
40660;DHT22;26753;45.544;9.232;2022-08-03T06:17:09;29.80;93.80
40660;DHT22;26753;45.544;9.232;2022-08-03T06:19:35;29.80;93.60
40660;DHT22;26753;45.544;9.232;2022-08-03T06:22:00;29.90;93.40
40660;DHT22;26753;45.544;9.232;2022-08-03T06:24:26;30.00;93.30
40660;DHT22;26753;45.544;9.232;2022-08-03T06:26:51;30.00;93.20
40660;DHT22;26753;45.544;9.232;2022-08-03T06:29:17;30.00;92.90
40660;DHT22;26753;45.544;9.232;2022-08-03T06:31:43;30.10;92.80
40660;DHT22;26753;45.544;9.232;2022-08-03T06:34:09;30.10;92.70
40660;DHT22;26753;45.544;9.232;2022-08-03T06:36:35;30.20;92.70
40660;DHT22;26753;45.544;9.232;2022-08-03T06:39:01;30.30;92.60
40660;DHT22;26753;45.544;9.232;2022-08-03T06:41:27;30.30;92.70
40660;DHT22;26753;45.544;9.232;2022-08-03T06:43:53;30.30;92.60
40660;DHT22;26753;45.544;9.232;2022-08-03T06:46:19;30.40;92.10
40660;DHT22;26753;45.544;9.232;2022-08-03T06:48:45;30.50;91.90
40660;DHT22;26753;45.544;9.232;2022-08-03T06:51:11;30.50;91.80
40660;DHT22;26753;45.544;9.232;2022-08-03T06:53:37;30.60;91.70
40660;DHT22;26753;45.544;9.232;2022-08-03T06:56:06;30.70;91.40
40660;DHT22;26753;45.544;9.232;2022-08-03T06:58:32;30.80;91.20
40660;DHT22;26753;45.544;9.232;2022-08-03T07:00:58;30.70;90.90
40660;DHT22;26753;45.544;9.232;2022-08-03T07:03:24;30.80;90.50
40660;DHT22;26753;45.544;9.232;2022-08-03T07:05:49;30.90;90.40
40660;DHT22;26753;45.544;9.232;2022-08-03T07:08:16;31.00;90.40
40660;DHT22;26753;45.544;9.232;2022-08-03T07:10:43;31.00;90.20
40660;DHT22;26753;45.544;9.232;2022-08-03T07:13:08;31.10;90.20
40660;DHT22;26753;45.544;9.232;2022-08-03T07:15:34;31.20;90.10
40660;DHT22;26753;45.544;9.232;2022-08-03T07:18:00;31.30;90.00
40660;DHT22;26753;45.544;9.232;2022-08-03T07:20:26;31.30;90.00
40660;DHT22;26753;45.544;9.232;2022-08-03T07:22:52;31.40;89.90
40660;DHT22;26753;45.544;9.232;2022-08-03T07:25:17;31.40;89.70
40660;DHT22;26753;45.544;9.232;2022-08-03T07:27:45;31.40;89.40
40660;DHT22;26753;45.544;9.232;2022-08-03T07:30:13;31.50;89.30
40660;DHT22;26753;45.544;9.232;2022-08-03T07:32:39;31.50;88.90
40660;DHT22;26753;45.544;9.232;2022-08-03T07:35:05;31.60;88.20
40660;DHT22;26753;45.544;9.232;2022-08-03T07:37:32;31.60;88.30
40660;DHT22;26753;45.544;9.232;2022-08-03T07:39:59;31.70;88.40
40660;DHT22;26753;45.544;9.232;2022-08-03T07:42:28;31.70;88.10
40660;DHT22;26753;45.544;9.232;2022-08-03T07:44:55;31.70;87.50
40660;DHT22;26753;45.544;9.232;2022-08-03T07:47:26;31.80;87.30
40660;DHT22;26753;45.544;9.232;2022-08-03T07:49:53;31.90;86.70
40660;DHT22;26753;45.544;9.232;2022-08-03T07:52:19;31.90;86.90
40660;DHT22;26753;45.544;9.232;2022-08-03T07:55:05;31.90;86.80
40660;DHT22;26753;45.544;9.232;2022-08-03T07:57:32;31.90;86.40
40660;DHT22;26753;45.544;9.232;2022-08-03T07:59:59;32.00;86.40
40660;DHT22;26753;45.544;9.232;2022-08-03T08:02:24;32.00;86.40
40660;DHT22;26753;45.544;9.232;2022-08-03T08:04:50;32.10;86.20
40660;DHT22;26753;45.544;9.232;2022-08-03T08:07:16;32.10;86.10
40660;DHT22;26753;45.544;9.232;2022-08-03T08:09:41;32.20;86.00
40660;DHT22;26753;45.544;9.232;2022-08-03T08:12:07;32.20;85.50
40660;DHT22;26753;45.544;9.232;2022-08-03T08:14:34;32.10;85.70
40660;DHT22;26753;45.544;9.232;2022-08-03T08:17:00;32.10;85.30
40660;DHT22;26753;45.544;9.232;2022-08-03T08:19:26;32.00;85.30
40660;DHT22;26753;45.544;9.232;2022-08-03T08:21:51;32.00;85.30
40660;DHT22;26753;45.544;9.232;2022-08-03T08:24:17;31.90;85.10
40660;DHT22;26753;45.544;9.232;2022-08-03T08:26:43;32.00;85.30
40660;DHT22;26753;45.544;9.232;2022-08-03T08:29:08;32.00;84.80
40660;DHT22;26753;45.544;9.232;2022-08-03T08:31:34;32.10;84.80
40660;DHT22;26753;45.544;9.232;2022-08-03T08:34:00;32.20;84.60
40660;DHT22;26753;45.544;9.232;2022-08-03T08:36:31;32.20;84.10
40660;DHT22;26753;45.544;9.232;2022-08-03T08:38:57;32.20;83.40
40660;DHT22;26753;45.544;9.232;2022-08-03T08:41:23;32.30;83.10
40660;DHT22;26753;45.544;9.232;2022-08-03T08:43:48;32.40;83.00
40660;DHT22;26753;45.544;9.232;2022-08-03T08:46:15;32.40;83.70
40660;DHT22;26753;45.544;9.232;2022-08-03T08:48:43;32.40;83.20
40660;DHT22;26753;45.544;9.232;2022-08-03T08:51:10;32.40;83.10
40660;DHT22;26753;45.544;9.232;2022-08-03T08:53:37;32.50;83.00
40660;DHT22;26753;45.544;9.232;2022-08-03T08:56:06;32.60;83.00
40660;DHT22;26753;45.544;9.232;2022-08-03T08:58:37;32.60;82.70
40660;DHT22;26753;45.544;9.232;2022-08-03T09:01:03;32.50;82.80
40660;DHT22;26753;45.544;9.232;2022-08-03T09:03:29;32.50;83.10
40660;DHT22;26753;45.544;9.232;2022-08-03T09:06:01;32.50;83.10
40660;DHT22;26753;45.544;9.232;2022-08-03T09:08:28;32.60;83.00
40660;DHT22;26753;45.544;9.232;2022-08-03T09:10:54;32.70;83.00
40660;DHT22;26753;45.544;9.232;2022-08-03T09:13:20;32.70;82.80
40660;DHT22;26753;45.544;9.232;2022-08-03T09:15:45;32.70;82.50
40660;DHT22;26753;45.544;9.232;2022-08-03T09:18:11;32.60;82.40
40660;DHT22;26753;45.544;9.232;2022-08-03T09:20:38;32.60;82.40
40660;DHT22;26753;45.544;9.232;2022-08-03T09:23:06;32.60;82.40
40660;DHT22;26753;45.544;9.232;2022-08-03T09:25:42;32.70;82.10
40660;DHT22;26753;45.544;9.232;2022-08-03T09:28:11;32.70;81.50
40660;DHT22;26753;45.544;9.232;2022-08-03T09:30:40;32.70;81.80
40660;DHT22;26753;45.544;9.232;2022-08-03T09:33:08;32.80;81.80
40660;DHT22;26753;45.544;9.232;2022-08-03T09:35:45;32.70;81.60
40660;DHT22;26753;45.544;9.232;2022-08-03T09:38:18;33.00;81.30
40660;DHT22;26753;45.544;9.232;2022-08-03T09:40:48;32.90;81.10
40660;DHT22;26753;45.544;9.232;2022-08-03T09:43:14;32.90;81.40
40660;DHT22;26753;45.544;9.232;2022-08-03T09:45:40;33.00;81.00
40660;DHT22;26753;45.544;9.232;2022-08-03T09:48:26;33.10;80.70
40660;DHT22;26753;45.544;9.232;2022-08-03T09:50:58;33.20;80.10
40660;DHT22;26753;45.544;9.232;2022-08-03T09:53:25;33.40;80.00
40660;DHT22;26753;45.544;9.232;2022-08-03T09:55:55;33.40;79.60
40660;DHT22;26753;45.544;9.232;2022-08-03T09:58:22;33.60;79.40
40660;DHT22;26753;45.544;9.232;2022-08-03T10:00:53;33.60;79.60
40660;DHT22;26753;45.544;9.232;2022-08-03T10:03:20;33.70;79.30
40660;DHT22;26753;45.544;9.232;2022-08-03T10:05:46;33.70;79.30
40660;DHT22;26753;45.544;9.232;2022-08-03T10:08:16;33.70;79.10
40660;DHT22;26753;45.544;9.232;2022-08-03T10:10:44;33.70;79.00
40660;DHT22;26753;45.544;9.232;2022-08-03T10:13:15;33.90;78.90
40660;DHT22;26753;45.544;9.232;2022-08-03T10:15:41;34.00;78.80
40660;DHT22;26753;45.544;9.232;2022-08-03T10:18:07;34.10;79.10
40660;DHT22;26753;45.544;9.232;2022-08-03T10:20:49;34.20;78.00
40660;DHT22;26753;45.544;9.232;2022-08-03T10:23:16;34.30;77.90
40660;DHT22;26753;45.544;9.232;2022-08-03T10:25:45;34.50;77.70
40660;DHT22;26753;45.544;9.232;2022-08-03T10:28:15;34.60;77.50
40660;DHT22;26753;45.544;9.232;2022-08-03T10:30:43;34.70;77.20
40660;DHT22;26753;45.544;9.232;2022-08-03T10:33:19;34.70;77.10
40660;DHT22;26753;45.544;9.232;2022-08-03T10:35:46;34.80;76.90
40660;DHT22;26753;45.544;9.232;2022-08-03T10:38:19;35.00;76.70
40660;DHT22;26753;45.544;9.232;2022-08-03T10:40:46;35.10;76.50
40660;DHT22;26753;45.544;9.232;2022-08-03T10:43:25;35.20;76.20
40660;DHT22;26753;45.544;9.232;2022-08-03T10:45:52;35.20;76.00
40660;DHT22;26753;45.544;9.232;2022-08-03T10:48:18;35.20;75.80
40660;DHT22;26753;45.544;9.232;2022-08-03T10:50:45;35.30;75.80
40660;DHT22;26753;45.544;9.232;2022-08-03T10:53:11;35.20;75.40
40660;DHT22;26753;45.544;9.232;2022-08-03T11:01:11;35.70;74.20
40660;DHT22;26753;45.544;9.232;2022-08-03T11:06:23;35.90;73.50
40660;DHT22;26753;45.544;9.232;2022-08-03T11:11:47;36.00;73.10
40660;DHT22;26753;45.544;9.232;2022-08-03T11:14:18;36.10;73.30
40660;DHT22;26753;45.544;9.232;2022-08-03T11:16:49;36.20;73.10
40660;DHT22;26753;45.544;9.232;2022-08-03T11:19:18;36.30;72.50
40660;DHT22;26753;45.544;9.232;2022-08-03T11:27:33;36.40;71.90
40660;DHT22;26753;45.544;9.232;2022-08-03T11:35:32;36.70;71.60
40660;DHT22;26753;45.544;9.232;2022-08-03T11:38:00;36.80;71.20
40660;DHT22;26753;45.544;9.232;2022-08-03T11:46:01;36.80;71.20
40660;DHT22;26753;45.544;9.232;2022-08-03T11:51:40;37.10;71.00
40660;DHT22;26753;45.544;9.232;2022-08-03T11:56:19;37.30;70.60
40660;DHT22;26753;45.544;9.232;2022-08-03T11:58:50;37.40;70.50
40660;DHT22;26753;45.544;9.232;2022-08-03T12:01:20;37.50;70.00
40660;DHT22;26753;45.544;9.232;2022-08-03T12:03:46;37.40;69.90
40660;DHT22;26753;45.544;9.232;2022-08-03T12:06:14;37.50;69.90
40660;DHT22;26753;45.544;9.232;2022-08-03T12:08:41;37.70;69.80
40660;DHT22;26753;45.544;9.232;2022-08-03T12:11:08;37.80;69.70
40660;DHT22;26753;45.544;9.232;2022-08-03T12:13:44;38.00;69.50
40660;DHT22;26753;45.544;9.232;2022-08-03T12:16:19;38.20;69.40
40660;DHT22;26753;45.544;9.232;2022-08-03T12:19:04;38.20;69.10
40660;DHT22;26753;45.544;9.232;2022-08-03T12:21:31;38.20;68.90
40660;DHT22;26753;45.544;9.232;2022-08-03T12:24:03;38.30;69.00
40660;DHT22;26753;45.544;9.232;2022-08-03T12:26:41;38.50;68.80
40660;DHT22;26753;45.544;9.232;2022-08-03T12:29:07;38.60;68.60
40660;DHT22;26753;45.544;9.232;2022-08-03T12:31:32;38.70;68.50
40660;DHT22;26753;45.544;9.232;2022-08-03T12:34:01;38.70;68.10
40660;DHT22;26753;45.544;9.232;2022-08-03T12:36:29;38.60;68.20
40660;DHT22;26753;45.544;9.232;2022-08-03T12:38:57;38.50;68.30
40660;DHT22;26753;45.544;9.232;2022-08-03T12:41:31;38.10;68.30
40660;DHT22;26753;45.544;9.232;2022-08-03T12:43:57;37.70;68.50
40660;DHT22;26753;45.544;9.232;2022-08-03T12:46:32;37.50;69.00
40660;DHT22;26753;45.544;9.232;2022-08-03T12:49:07;37.80;68.50
40660;DHT22;26753;45.544;9.232;2022-08-03T12:51:36;37.80;68.50
40660;DHT22;26753;45.544;9.232;2022-08-03T12:54:03;37.70;68.50
40660;DHT22;26753;45.544;9.232;2022-08-03T12:56:29;37.90;68.20
40660;DHT22;26753;45.544;9.232;2022-08-03T12:58:55;38.20;68.40
40660;DHT22;26753;45.544;9.232;2022-08-03T13:01:21;38.30;68.00
40660;DHT22;26753;45.544;9.232;2022-08-03T13:03:50;38.50;68.10
40660;DHT22;26753;45.544;9.232;2022-08-03T13:06:24;38.80;67.40
40660;DHT22;26753;45.544;9.232;2022-08-03T13:09:04;39.00;66.90
40660;DHT22;26753;45.544;9.232;2022-08-03T13:11:29;39.00;66.80
40660;DHT22;26753;45.544;9.232;2022-08-03T13:13:55;39.00;67.10
40660;DHT22;26753;45.544;9.232;2022-08-03T13:16:21;38.60;67.30
40660;DHT22;26753;45.544;9.232;2022-08-03T13:18:48;38.80;66.80
40660;DHT22;26753;45.544;9.232;2022-08-03T13:21:14;39.00;66.50
40660;DHT22;26753;45.544;9.232;2022-08-03T13:23:41;39.20;66.40
40660;DHT22;26753;45.544;9.232;2022-08-03T13:26:07;39.40;66.10
40660;DHT22;26753;45.544;9.232;2022-08-03T13:28:33;39.30;66.20
40660;DHT22;26753;45.544;9.232;2022-08-03T13:30:59;39.30;66.30
40660;DHT22;26753;45.544;9.232;2022-08-03T13:33:26;39.20;66.20
40660;DHT22;26753;45.544;9.232;2022-08-03T13:35:52;39.50;66.20
40660;DHT22;26753;45.544;9.232;2022-08-03T13:38:18;39.70;65.90
40660;DHT22;26753;45.544;9.232;2022-08-03T13:40:43;39.90;65.80
40660;DHT22;26753;45.544;9.232;2022-08-03T13:43:09;40.00;65.50
40660;DHT22;26753;45.544;9.232;2022-08-03T13:45:35;40.00;65.20
40660;DHT22;26753;45.544;9.232;2022-08-03T13:48:00;40.30;65.20
40660;DHT22;26753;45.544;9.232;2022-08-03T13:50:26;40.30;64.90
40660;DHT22;26753;45.544;9.232;2022-08-03T13:52:52;40.50;64.80
40660;DHT22;26753;45.544;9.232;2022-08-03T13:55:17;40.20;64.40
40660;DHT22;26753;45.544;9.232;2022-08-03T13:57:43;40.00;64.50
40660;DHT22;26753;45.544;9.232;2022-08-03T14:00:09;40.10;64.40
40660;DHT22;26753;45.544;9.232;2022-08-03T14:02:35;40.10;64.50
40660;DHT22;26753;45.544;9.232;2022-08-03T14:05:00;40.30;64.30
40660;DHT22;26753;45.544;9.232;2022-08-03T14:07:26;40.40;64.20
40660;DHT22;26753;45.544;9.232;2022-08-03T14:09:52;40.60;64.10
40660;DHT22;26753;45.544;9.232;2022-08-03T14:12:17;40.70;63.80
40660;DHT22;26753;45.544;9.232;2022-08-03T14:14:43;40.80;63.70
40660;DHT22;26753;45.544;9.232;2022-08-03T14:17:09;40.50;63.50
40660;DHT22;26753;45.544;9.232;2022-08-03T14:19:34;40.50;63.60
40660;DHT22;26753;45.544;9.232;2022-08-03T14:22:00;40.40;63.40
40660;DHT22;26753;45.544;9.232;2022-08-03T14:24:26;40.50;64.10
40660;DHT22;26753;45.544;9.232;2022-08-03T14:26:51;40.60;63.40
40660;DHT22;26753;45.544;9.232;2022-08-03T14:29:17;40.50;63.10
40660;DHT22;26753;45.544;9.232;2022-08-03T14:31:42;40.50;63.00
40660;DHT22;26753;45.544;9.232;2022-08-03T14:34:08;40.80;62.90
40660;DHT22;26753;45.544;9.232;2022-08-03T14:36:33;41.40;62.80
40660;DHT22;26753;45.544;9.232;2022-08-03T14:38:59;41.40;62.60
40660;DHT22;26753;45.544;9.232;2022-08-03T14:41:25;41.40;62.60
40660;DHT22;26753;45.544;9.232;2022-08-03T14:43:50;41.30;62.80
40660;DHT22;26753;45.544;9.232;2022-08-03T14:46:16;41.20;62.60
40660;DHT22;26753;45.544;9.232;2022-08-03T14:48:41;41.30;62.40
40660;DHT22;26753;45.544;9.232;2022-08-03T14:51:07;41.40;62.30
40660;DHT22;26753;45.544;9.232;2022-08-03T14:53:33;41.30;61.90
40660;DHT22;26753;45.544;9.232;2022-08-03T14:55:59;41.10;61.80
40660;DHT22;26753;45.544;9.232;2022-08-03T14:58:25;41.10;61.90
40660;DHT22;26753;45.544;9.232;2022-08-03T15:00:52;41.20;61.60
40660;DHT22;26753;45.544;9.232;2022-08-03T15:03:19;41.60;61.30
40660;DHT22;26753;45.544;9.232;2022-08-03T15:05:48;42.10;61.30
40660;DHT22;26753;45.544;9.232;2022-08-03T15:08:13;42.30;61.40
40660;DHT22;26753;45.544;9.232;2022-08-03T15:10:39;42.50;61.00
40660;DHT22;26753;45.544;9.232;2022-08-03T15:13:05;42.10;60.90
40660;DHT22;26753;45.544;9.232;2022-08-03T15:15:31;41.40;61.70
40660;DHT22;26753;45.544;9.232;2022-08-03T15:17:56;41.20;61.70
40660;DHT22;26753;45.544;9.232;2022-08-03T15:20:22;41.10;62.30
40660;DHT22;26753;45.544;9.232;2022-08-03T15:22:47;41.00;62.00
40660;DHT22;26753;45.544;9.232;2022-08-03T15:25:13;41.00;62.20
40660;DHT22;26753;45.544;9.232;2022-08-03T15:27:39;40.80;62.00
40660;DHT22;26753;45.544;9.232;2022-08-03T15:30:05;40.70;62.30
40660;DHT22;26753;45.544;9.232;2022-08-03T15:32:32;40.30;62.40
40660;DHT22;26753;45.544;9.232;2022-08-03T15:34:58;40.40;62.20
40660;DHT22;26753;45.544;9.232;2022-08-03T15:37:24;40.10;62.40
40660;DHT22;26753;45.544;9.232;2022-08-03T15:39:50;39.80;62.70
40660;DHT22;26753;45.544;9.232;2022-08-03T15:42:16;39.80;62.80
40660;DHT22;26753;45.544;9.232;2022-08-03T15:44:42;39.90;62.50
40660;DHT22;26753;45.544;9.232;2022-08-03T15:47:07;40.00;62.50
40660;DHT22;26753;45.544;9.232;2022-08-03T15:49:33;40.20;62.40
40660;DHT22;26753;45.544;9.232;2022-08-03T15:51:58;39.90;63.00
40660;DHT22;26753;45.544;9.232;2022-08-03T15:54:25;39.70;63.30
40660;DHT22;26753;45.544;9.232;2022-08-03T15:56:51;39.80;63.10
40660;DHT22;26753;45.544;9.232;2022-08-03T15:59:17;39.90;63.00
40660;DHT22;26753;45.544;9.232;2022-08-03T16:01:45;39.80;63.00
40660;DHT22;26753;45.544;9.232;2022-08-03T16:04:11;39.60;63.10
40660;DHT22;26753;45.544;9.232;2022-08-03T16:06:36;39.70;63.20
40660;DHT22;26753;45.544;9.232;2022-08-03T16:09:06;39.60;63.30
40660;DHT22;26753;45.544;9.232;2022-08-03T16:11:33;39.50;63.40